Time;durP1;ratioP1;P1;durP2;ratioP2;P2;SDS_P1;SDS_P2;PMS_P1;PMS_P2;Temp;Humidity;BMP_temperature;BMP_pressure;BME280_temperature;BME280_humidity;BME280_pressure;Samples;Min_cycle;Max_cycle;Signal;HPM_P1;HPM_P2
2021/07/28 00:00:22;;;;;;;10.05;8.27;;;20.50;99.90;;;;;;6159053;23;20562;-85
2021/07/28 00:02:49;;;;;;;9.32;8.10;;;20.40;99.90;;;;;;6159931;23;20286;-88
2021/07/28 00:05:16;;;;;;;9.02;8.13;;;20.40;99.90;;;;;;6160065;23;20206;-87
2021/07/28 00:07:43;;;;;;;8.68;7.78;;;20.40;99.90;;;;;;6159699;23;20243;-85
2021/07/28 00:10:13;;;;;;;10.30;8.30;;;20.30;99.90;;;;;;6159377;23;20176;-88
2021/07/28 00:12:40;;;;;;;10.18;8.13;;;20.30;99.90;;;;;;6158202;23;20659;-88
2021/07/28 00:15:07;;;;;;;8.85;7.93;;;20.30;99.90;;;;;;6158328;23;20213;-88
2021/07/28 00:17:37;;;;;;;9.73;8.73;;;20.20;99.90;;;;;;6158089;23;20214;-87
2021/07/28 00:20:06;;;;;;;8.82;8.02;;;20.30;99.90;;;;;;6158304;23;20186;-90
2021/07/28 00:25:23;;;;;;;8.88;8.00;;;20.30;99.90;;;;;;6158577;23;20211;-88
2021/07/28 00:27:50;;;;;;;9.30;8.18;;;20.20;99.90;;;;;;6157628;23;20215;-88
2021/07/28 00:30:19;;;;;;;11.40;9.05;;;20.20;99.90;;;;;;6156846;23;20191;-88
2021/07/28 00:32:46;;;;;;;10.40;8.77;;;20.20;99.90;;;;;;6155134;23;20207;-88
2021/07/28 00:35:13;;;;;;;10.13;9.00;;;20.30;99.90;;;;;;6157183;23;20543;-89
2021/07/28 00:37:40;;;;;;;9.45;8.48;;;20.20;99.90;;;;;;6156854;23;20207;-88
2021/07/28 00:40:08;;;;;;;9.45;8.55;;;20.30;99.90;;;;;;6156996;23;20199;-85
2021/07/28 00:42:36;;;;;;;10.30;8.13;;;20.30;99.90;;;;;;6160156;23;20207;-88
2021/07/28 00:45:04;;;;;;;9.00;8.02;;;20.20;99.90;;;;;;6157739;23;20275;-88
2021/07/28 00:47:31;;;;;;;10.27;8.10;;;20.30;99.90;;;;;;6156175;23;20255;-89
2021/07/28 00:49:59;;;;;;;8.68;7.82;;;20.20;99.90;;;;;;6157367;23;20187;-88
2021/07/28 00:52:26;;;;;;;7.70;6.95;;;20.20;99.90;;;;;;6157373;23;20286;-88
2021/07/28 00:54:54;;;;;;;9.60;7.40;;;20.10;99.90;;;;;;6159918;23;20171;-89
2021/07/28 00:57:21;;;;;;;8.13;6.28;;;20.10;99.90;;;;;;6158466;23;20309;-88
2021/07/28 00:59:50;;;;;;;7.13;5.60;;;20.10;99.90;;;;;;6158303;23;20175;-88
2021/07/28 01:02:17;;;;;;;5.70;5.07;;;19.90;99.90;;;;;;6155966;23;20203;-89
2021/07/28 01:04:45;;;;;;;7.32;5.07;;;19.70;99.90;;;;;;6157573;23;20251;-88
2021/07/28 01:07:12;;;;;;;5.97;5.40;;;19.50;99.90;;;;;;6157035;23;20262;-90
2021/07/28 01:09:39;;;;;;;7.20;5.50;;;19.40;99.90;;;;;;6158209;23;20175;-88
2021/07/28 01:12:07;;;;;;;6.55;5.93;;;19.30;99.90;;;;;;6156808;23;20284;-88
2021/07/28 01:14:34;;;;;;;6.30;5.70;;;19.40;99.90;;;;;;6157106;23;20257;-88
2021/07/28 01:17:04;;;;;;;7.13;6.43;;;19.40;99.90;;;;;;6155124;23;20204;-88
2021/07/28 01:19:39;;;;;;;6.50;5.85;;;19.40;99.90;;;;;;6155590;23;20221;-88
2021/07/28 01:22:06;;;;;;;7.25;6.40;;;19.30;99.90;;;;;;6154903;23;20293;-88
2021/07/28 01:24:36;;;;;;;7.05;6.15;;;19.30;99.90;;;;;;6156783;23;20193;-89
2021/07/28 01:27:04;;;;;;;5.80;5.30;;;19.30;99.90;;;;;;6155185;23;20230;-88
2021/07/28 01:29:31;;;;;;;7.90;6.47;;;19.20;99.90;;;;;;6155729;23;20193;-87
2021/07/28 01:31:58;;;;;;;7.45;6.00;;;19.20;99.90;;;;;;6154730;23;20211;-87
2021/07/28 01:34:25;;;;;;;6.93;5.70;;;19.30;99.90;;;;;;6155327;23;20544;-88
2021/07/28 01:36:55;;;;;;;6.47;5.60;;;19.30;99.90;;;;;;6154470;23;20574;-89
2021/07/28 01:39:22;;;;;;;6.88;5.75;;;19.20;99.90;;;;;;6154577;23;20163;-88
2021/07/28 01:42:00;;;;;;;5.90;5.30;;;19.20;99.90;;;;;;6154936;23;20258;-88
2021/07/28 01:44:27;;;;;;;7.97;5.72;;;19.20;99.90;;;;;;6154622;23;20195;-88
2021/07/28 01:46:54;;;;;;;7.75;5.90;;;19.20;99.90;;;;;;6153604;23;20234;-89
2021/07/28 01:49:20;;;;;;;7.32;5.72;;;19.20;99.90;;;;;;6152796;23;20282;-88
2021/07/28 01:51:48;;;;;;;6.38;5.72;;;19.10;99.90;;;;;;6151994;23;20655;-88
2021/07/28 01:54:14;;;;;;;5.85;5.28;;;19.00;99.90;;;;;;6155440;23;20294;-88
2021/07/28 01:56:43;;;;;;;6.72;5.30;;;19.10;99.90;;;;;;6155907;23;20294;-88
2021/07/28 01:59:12;;;;;;;6.20;5.60;;;19.00;99.90;;;;;;6156076;23;20171;-88
2021/07/28 02:01:39;;;;;;;6.65;5.95;;;19.00;99.90;;;;;;6155483;23;20750;-88
2021/07/28 02:04:06;;;;;;;6.40;5.80;;;18.90;99.90;;;;;;6155463;23;20203;-88
2021/07/28 02:06:33;;;;;;;6.95;5.55;;;18.90;99.90;;;;;;6155577;23;20221;-88
2021/07/28 02:09:00;;;;;;;6.07;5.47;;;18.90;99.90;;;;;;6155650;23;20177;-88
2021/07/28 02:11:27;;;;;;;5.55;4.97;;;19.00;99.90;;;;;;6155014;23;20565;-88
2021/07/28 02:13:54;;;;;;;8.00;5.35;;;19.00;99.90;;;;;;6155921;23;20203;-88
2021/07/28 02:16:23;;;;;;;6.38;5.30;;;18.90;99.90;;;;;;6154144;23;20272;-88
2021/07/28 02:18:50;;;;;;;6.65;5.05;;;18.90;99.90;;;;;;6155366;23;20175;-88
2021/07/28 02:21:17;;;;;;;5.85;5.28;;;18.80;99.90;;;;;;6155004;23;20274;-88
2021/07/28 02:23:43;;;;;;;5.80;5.30;;;18.80;99.90;;;;;;6154881;23;20182;-88
2021/07/28 02:26:10;;;;;;;5.57;5.05;;;18.80;99.90;;;;;;6154741;23;20218;-88
2021/07/28 02:28:38;;;;;;;6.55;5.47;;;18.80;99.90;;;;;;6155482;23;20254;-88
2021/07/28 02:31:04;;;;;;;6.85;5.00;;;18.80;99.90;;;;;;6154479;23;20234;-88
2021/07/28 02:33:33;;;;;;;7.20;5.30;;;18.80;99.90;;;;;;6155419;23;20238;-88
2021/07/28 02:36:00;;;;;;;6.32;5.13;;;18.80;99.90;;;;;;6153918;23;20835;-88
2021/07/28 02:38:27;;;;;;;5.88;5.28;;;18.80;99.90;;;;;;6154919;23;20198;-88
2021/07/28 02:40:54;;;;;;;6.35;4.80;;;18.60;99.90;;;;;;6153919;23;20199;-88
2021/07/28 02:43:21;;;;;;;7.60;4.90;;;18.50;99.90;;;;;;6154850;23;20316;-88
2021/07/28 02:45:48;;;;;;;5.38;4.95;;;18.50;99.90;;;;;;6154251;23;20199;-88
2021/07/28 02:48:15;;;;;;;6.35;5.00;;;18.50;99.90;;;;;;6155030;23;20217;-88
2021/07/28 02:50:43;;;;;;;7.93;4.50;;;18.60;99.90;;;;;;6154044;23;20183;-88
2021/07/28 02:53:10;;;;;;;5.38;4.70;;;18.60;99.90;;;;;;6153811;23;20586;-88
2021/07/28 02:55:37;;;;;;;5.70;4.43;;;18.70;99.90;;;;;;6154706;23;20175;-88
2021/07/28 02:58:04;;;;;;;5.03;4.45;;;18.60;99.90;;;;;;6154708;23;20179;-88
2021/07/28 03:00:31;;;;;;;4.50;4.10;;;18.50;99.90;;;;;;6154778;23;20203;-88
2021/07/28 03:02:58;;;;;;;5.13;4.63;;;18.60;99.90;;;;;;6155211;23;20202;-88
2021/07/28 03:05:25;;;;;;;4.78;4.25;;;18.50;99.90;;;;;;6155883;23;20650;-88
2021/07/28 03:07:54;;;;;;;6.45;4.93;;;18.50;99.90;;;;;;6154188;23;20226;-88
2021/07/28 03:10:21;;;;;;;5.88;4.57;;;18.50;99.90;;;;;;6154561;23;20175;-87
2021/07/28 03:12:48;;;;;;;7.18;4.80;;;18.50;99.90;;;;;;6154261;23;20211;-88
2021/07/28 03:15:15;;;;;;;7.32;5.25;;;18.50;99.90;;;;;;6154553;23;20175;-87
2021/07/28 03:17:42;;;;;;;5.22;4.72;;;18.60;99.90;;;;;;6152527;23;20209;-88
2021/07/28 03:20:10;;;;;;;5.25;4.63;;;18.60;99.90;;;;;;6154599;23;20243;-88
2021/07/28 03:22:37;;;;;;;5.03;4.35;;;18.60;99.90;;;;;;6155408;23;20235;-87
2021/07/28 03:25:06;;;;;;;4.57;4.05;;;18.50;99.90;;;;;;6156238;23;20214;-88
2021/07/28 03:27:33;;;;;;;5.32;4.32;;;18.50;99.90;;;;;;6156509;23;20205;-87
2021/07/28 03:30:00;;;;;;;5.65;4.65;;;18.50;99.90;;;;;;6156393;23;20318;-88
2021/07/28 03:32:27;;;;;;;5.53;4.22;;;18.50;99.90;;;;;;6156070;23;20659;-89
2021/07/28 03:34:54;;;;;;;4.72;4.30;;;18.50;99.90;;;;;;6156859;23;20178;-88
2021/07/28 03:37:21;;;;;;;5.70;4.20;;;18.50;99.90;;;;;;6155905;23;20203;-88
2021/07/28 03:39:48;;;;;;;4.93;4.43;;;18.50;99.90;;;;;;6156572;23;20252;-88
2021/07/28 03:42:16;;;;;;;7.75;4.43;;;18.50;99.90;;;;;;6156225;23;20282;-87
2021/07/28 03:44:43;;;;;;;4.60;4.20;;;18.50;99.90;;;;;;6156990;23;20760;-88
2021/07/28 03:47:10;;;;;;;5.22;4.53;;;18.60;99.90;;;;;;6155851;23;20213;-88
2021/07/28 03:49:37;;;;;;;5.95;4.55;;;18.50;99.90;;;;;;6156057;23;20556;-88
2021/07/28 03:52:04;;;;;;;6.60;4.38;;;18.50;99.90;;;;;;6155312;23;20211;-88
2021/07/28 03:54:31;;;;;;;6.35;4.82;;;18.50;99.90;;;;;;6156136;23;20175;-88
2021/07/28 03:56:58;;;;;;;6.32;4.47;;;18.40;99.90;;;;;;6155860;23;20202;-87
2021/07/28 03:59:27;;;;;;;6.05;5.28;;;18.40;99.90;;;;;;6156504;23;20643;-88
2021/07/28 04:01:54;;;;;;;6.93;5.65;;;18.30;99.90;;;;;;6156273;23;20207;-88
2021/07/28 04:04:20;;;;;;;6.15;5.55;;;18.30;99.90;;;;;;6157436;23;20195;-88
2021/07/28 04:06:47;;;;;;;7.07;6.13;;;18.30;99.90;;;;;;6156490;23;20199;-88
2021/07/28 04:09:14;;;;;;;8.18;5.97;;;18.40;99.90;;;;;;6157733;23;20171;-89
2021/07/28 04:11:41;;;;;;;6.55;5.95;;;18.30;99.90;;;;;;6156071;23;20267;-89
2021/07/28 04:14:08;;;;;;;9.10;6.10;;;18.30;99.90;;;;;;6157180;23;20671;-88
2021/07/28 04:16:37;;;;;;;8.98;6.38;;;18.30;99.90;;;;;;6156173;23;20270;-88
2021/07/28 04:19:04;;;;;;;10.25;6.72;;;18.30;99.90;;;;;;6156332;23;20254;-88
2021/07/28 04:21:31;;;;;;;8.18;6.55;;;18.30;99.90;;;;;;6156433;23;20195;-88
2021/07/28 04:23:58;;;;;;;9.32;6.80;;;18.30;99.90;;;;;;6156542;23;20177;-89
2021/07/28 04:26:25;;;;;;;8.07;6.70;;;18.40;99.90;;;;;;6156826;23;20195;-88
2021/07/28 04:28:52;;;;;;;9.80;7.00;;;18.30;99.90;;;;;;6155904;23;20175;-88
2021/07/28 04:31:19;;;;;;;9.18;7.47;;;18.30;99.90;;;;;;6155613;23;20207;-88
2021/07/28 04:33:47;;;;;;;8.77;6.50;;;18.20;99.90;;;;;;6156909;23;20234;-88
2021/07/28 04:36:14;;;;;;;9.88;7.57;;;18.20;99.90;;;;;;6155272;23;20262;-88
2021/07/28 04:38:41;;;;;;;11.52;7.43;;;18.20;99.90;;;;;;6155353;23;20254;-88
2021/07/28 04:41:08;;;;;;;11.45;7.03;;;18.20;99.90;;;;;;6155598;23;20273;-89
2021/07/28 04:43:35;;;;;;;9.32;7.07;;;18.20;99.90;;;;;;6157714;23;20203;-88
2021/07/28 04:46:04;;;;;;;10.65;7.20;;;18.30;99.90;;;;;;6155930;23;20266;-89
2021/07/28 04:48:32;;;;;;;10.38;7.43;;;18.20;99.90;;;;;;6154874;23;20199;-89
2021/07/28 04:51:00;;;;;;;9.50;7.25;;;18.30;99.90;;;;;;6153879;23;20590;-90
2021/07/28 04:53:28;;;;;;;9.65;7.38;;;18.30;99.90;;;;;;6154988;23;20281;-89
2021/07/28 04:55:57;;;;;;;8.10;7.30;;;18.30;99.90;;;;;;6152600;23;20775;-89
2021/07/28 04:58:24;;;;;;;8.98;7.70;;;18.40;99.90;;;;;;6154225;23;20247;-90
2021/07/28 05:00:52;;;;;;;9.57;7.82;;;18.30;99.90;;;;;;6154885;23;20199;-90
2021/07/28 05:03:19;;;;;;;8.85;7.38;;;18.40;99.90;;;;;;6154225;23;20215;-90
2021/07/28 05:05:47;;;;;;;9.57;8.23;;;18.50;99.90;;;;;;6155630;23;20178;-89
2021/07/28 05:08:19;;;;;;;11.73;8.05;;;18.60;99.90;;;;;;6155550;23;20691;-89
2021/07/28 05:10:48;;;;;;;9.65;8.45;;;18.70;99.90;;;;;;6154908;23;20202;-88
2021/07/28 05:13:15;;;;;;;10.07;8.60;;;18.60;99.90;;;;;;6155737;23;20199;-89
2021/07/28 05:15:42;;;;;;;9.55;8.38;;;18.70;99.90;;;;;;6153222;23;20171;-90
2021/07/28 05:18:10;;;;;;;8.73;7.53;;;18.60;99.90;;;;;;6154987;23;20171;-89
2021/07/28 05:20:37;;;;;;;8.15;7.32;;;18.60;99.90;;;;;;6155170;23;20223;-90
2021/07/28 05:23:04;;;;;;;8.38;7.53;;;18.60;99.90;;;;;;6155443;23;20167;-90
2021/07/28 05:25:33;;;;;;;10.15;7.82;;;18.60;99.90;;;;;;6155164;23;20207;-90
2021/07/28 05:28:00;;;;;;;9.40;6.75;;;18.60;99.90;;;;;;6155755;23;20262;-90
2021/07/28 05:30:28;;;;;;;6.38;5.78;;;18.70;99.90;;;;;;6156181;23;20566;-87
2021/07/28 05:32:55;;;;;;;7.32;6.15;;;18.70;99.90;;;;;;6156472;23;20214;-92
2021/07/28 05:35:22;;;;;;;7.80;6.10;;;18.70;99.90;;;;;;6155628;23;20211;-88
2021/07/28 05:37:49;;;;;;;6.00;5.47;;;18.80;99.90;;;;;;6154231;23;20278;-89
2021/07/28 05:40:16;;;;;;;7.63;5.90;;;18.80;99.90;;;;;;6156833;23;20230;-88
2021/07/28 05:42:44;;;;;;;8.63;5.95;;;18.90;99.90;;;;;;6155882;23;20286;-89
2021/07/28 05:45:12;;;;;;;7.47;5.90;;;18.90;99.90;;;;;;6157178;23;20490;-88
2021/07/28 05:47:38;;;;;;;9.07;5.72;;;18.90;99.90;;;;;;6154018;23;20306;-89
2021/07/28 05:50:06;;;;;;;7.50;6.20;;;19.00;99.90;;;;;;6154153;23;20266;-88
2021/07/28 05:52:33;;;;;;;6.90;5.97;;;19.00;99.90;;;;;;6153329;23;20239;-90
2021/07/28 05:55:00;;;;;;;5.75;5.20;;;19.10;99.90;;;;;;6155160;23;20250;-88
2021/07/28 05:57:27;;;;;;;6.45;5.78;;;19.10;99.90;;;;;;6155078;23;20286;-88
2021/07/28 05:59:56;;;;;;;5.93;5.40;;;19.20;99.90;;;;;;6155337;23;20261;-89
2021/07/28 06:02:22;;;;;;;10.73;5.32;;;19.10;99.90;;;;;;6155102;23;20681;-90
2021/07/28 06:04:50;;;;;;;6.20;5.57;;;19.20;99.90;;;;;;6156441;23;20207;-90
2021/07/28 06:07:17;;;;;;;6.60;5.60;;;19.20;99.90;;;;;;6155723;23;20278;-88
2021/07/28 06:09:44;;;;;;;6.20;5.63;;;19.40;99.90;;;;;;6156170;23;20557;-89
2021/07/28 06:12:11;;;;;;;6.30;5.70;;;19.50;99.90;;;;;;6154779;23;20638;-89
2021/07/28 06:14:38;;;;;;;9.10;5.63;;;19.60;99.90;;;;;;6155244;23;20564;-87
2021/07/28 06:17:06;;;;;;;7.72;6.07;;;19.70;99.90;;;;;;6155277;23;20274;-87
2021/07/28 06:19:33;;;;;;;7.13;5.55;;;19.80;99.90;;;;;;6157134;23;20775;-89
2021/07/28 06:22:00;;;;;;;5.57;5.07;;;20.00;99.90;;;;;;6156297;23;20203;-88
2021/07/28 06:24:28;;;;;;;6.57;5.15;;;20.10;99.90;;;;;;6158444;23;20266;-88
2021/07/28 06:26:55;;;;;;;11.77;5.47;;;20.30;99.90;;;;;;6156102;23;20278;-87
2021/07/28 06:29:25;;;;;;;7.35;5.30;;;20.40;99.80;;;;;;6156732;23;20286;-87
2021/07/28 06:31:52;;;;;;;8.88;5.65;;;20.60;99.90;;;;;;6158080;23;20257;-89
2021/07/28 06:34:20;;;;;;;8.07;5.38;;;20.80;99.40;;;;;;6158165;23;20237;-85
2021/07/28 06:36:48;;;;;;;7.95;5.35;;;21.20;98.40;;;;;;6158443;23;20258;-87
2021/07/28 06:39:15;;;;;;;7.78;5.25;;;21.60;97.00;;;;;;6153993;23;20186;-87
2021/07/28 06:41:42;;;;;;;7.15;5.60;;;21.80;95.80;;;;;;6152852;23;20282;-87
2021/07/28 06:44:09;;;;;;;6.45;4.78;;;22.10;95.20;;;;;;6153893;23;20213;-83
2021/07/28 06:46:35;;;;;;;7.97;5.70;;;22.20;94.90;;;;;;6152956;23;20274;-87
2021/07/28 06:49:03;;;;;;;10.27;5.93;;;22.30;94.50;;;;;;6152426;23;20278;-90
2021/07/28 06:51:31;;;;;;;5.90;5.30;;;22.30;93.80;;;;;;6153950;23;20524;-87
2021/07/28 06:53:59;;;;;;;5.80;5.20;;;22.20;93.50;;;;;;6154138;23;20203;-89
2021/07/28 06:56:26;;;;;;;8.18;5.60;;;22.10;94.20;;;;;;6154775;23;20254;-87
2021/07/28 06:58:53;;;;;;;6.65;5.13;;;22.00;94.70;;;;;;6155183;23;20239;-87
2021/07/28 07:01:19;;;;;;;6.25;5.30;;;22.10;95.00;;;;;;6153836;23;20285;-88
2021/07/28 07:03:46;;;;;;;5.85;5.22;;;22.30;95.00;;;;;;6155331;23;20176;-88
2021/07/28 07:06:13;;;;;;;11.15;5.30;;;22.50;94.30;;;;;;6154999;23;20250;-88
2021/07/28 07:08:42;;;;;;;7.28;6.57;;;22.70;93.40;;;;;;6155591;23;20602;-87
2021/07/28 07:11:09;;;;;;;9.48;6.13;;;22.90;93.30;;;;;;6154374;23;20521;-87
2021/07/28 07:13:36;;;;;;;6.65;6.00;;;23.00;93.00;;;;;;6155036;23;20230;-89
2021/07/28 07:16:04;;;;;;;6.72;5.78;;;23.10;92.30;;;;;;6161556;23;20202;-86
2021/07/28 07:18:31;;;;;;;6.35;4.97;;;23.00;92.00;;;;;;6162946;23;20255;-85
2021/07/28 07:20:57;;;;;;;6.22;5.43;;;22.80;91.30;;;;;;6154292;23;20615;-87
2021/07/28 07:23:25;;;;;;;6.55;5.30;;;22.60;91.70;;;;;;6155266;23;20547;-87
2021/07/28 07:25:58;;;;;;;6.55;5.70;;;22.30;92.50;;;;;;6154141;23;20262;-87
2021/07/28 07:28:25;;;;;;;6.20;5.60;;;22.20;93.10;;;;;;6158510;23;20262;-88
2021/07/28 07:30:52;;;;;;;7.18;5.28;;;22.10;93.30;;;;;;6157370;23;20179;-86
2021/07/28 07:36:04;;;;;;;6.35;5.75;;;22.20;94.00;;;;;;6153822;23;20261;-87
2021/07/28 07:38:30;;;;;;;7.00;5.68;;;22.20;93.60;;;;;;6154310;23;20175;-88
2021/07/28 07:40:59;;;;;;;5.95;5.10;;;22.20;93.60;;;;;;6153440;23;20253;-88
2021/07/28 07:43:26;;;;;;;6.93;5.53;;;22.30;93.20;;;;;;6153854;23;20215;-87
2021/07/28 07:45:55;;;;;;;7.18;5.75;;;22.30;93.20;;;;;;6153540;23;20774;-89
2021/07/28 07:48:22;;;;;;;9.65;6.28;;;22.50;92.30;;;;;;6153797;23;20206;-88
2021/07/28 07:50:49;;;;;;;6.85;5.82;;;22.40;91.20;;;;;;6153794;23;20530;-90
2021/07/28 07:53:16;;;;;;;8.88;5.90;;;22.40;91.30;;;;;;6153508;23;20277;-88
2021/07/28 07:55:43;;;;;;;7.75;6.50;;;22.50;91.40;;;;;;6153595;23;20176;-87
2021/07/28 07:58:11;;;;;;;7.40;6.13;;;22.50;91.30;;;;;;6154290;23;20222;-86
2021/07/28 08:00:39;;;;;;;6.97;6.28;;;22.40;92.10;;;;;;6154389;23;20181;-85
2021/07/28 08:03:05;;;;;;;8.60;6.25;;;22.50;91.40;;;;;;6154368;23;20180;-87
2021/07/28 08:05:34;;;;;;;7.00;5.93;;;22.40;91.30;;;;;;6155201;23;20254;-87
2021/07/28 08:08:01;;;;;;;5.95;5.45;;;22.50;90.90;;;;;;6154294;23;20187;-89
2021/07/28 08:10:28;;;;;;;8.20;6.13;;;22.50;91.80;;;;;;6155131;23;20233;-87
2021/07/28 08:12:55;;;;;;;10.45;6.43;;;22.30;91.40;;;;;;6155778;23;20230;-86
2021/07/28 08:15:24;;;;;;;7.07;6.38;;;22.20;91.50;;;;;;6156104;23;20274;-87
2021/07/28 08:17:51;;;;;;;7.38;6.55;;;22.10;92.40;;;;;;6154847;23;20239;-86
2021/07/28 08:20:18;;;;;;;8.93;6.78;;;22.10;92.30;;;;;;6155341;23;20182;-86
2021/07/28 08:22:45;;;;;;;10.15;6.50;;;21.70;91.90;;;;;;6155144;23;20270;-86
2021/07/28 08:25:13;;;;;;;7.65;6.85;;;21.60;93.00;;;;;;6155828;23;20181;-86
2021/07/28 08:27:39;;;;;;;8.68;7.05;;;21.50;93.00;;;;;;6155926;23;20210;-85
2021/07/28 08:30:08;;;;;;;9.02;7.57;;;21.40;93.30;;;;;;6156710;23;20210;-86
2021/07/28 08:32:36;;;;;;;8.57;7.65;;;21.30;93.90;;;;;;6158120;23;20612;-85
2021/07/28 08:35:04;;;;;;;9.48;7.18;;;21.20;93.90;;;;;;6158767;23;20282;-90
2021/07/28 08:37:31;;;;;;;10.25;7.88;;;21.20;93.90;;;;;;6158976;23;20213;-86
2021/07/28 08:39:58;;;;;;;8.50;6.78;;;21.10;94.10;;;;;;6159515;23;20270;-85
2021/07/28 08:42:27;;;;;;;10.70;7.00;;;21.10;94.30;;;;;;6158680;23;20875;-85
2021/07/28 08:44:54;;;;;;;13.52;7.90;;;21.10;94.90;;;;;;6160847;23;20258;-85
2021/07/28 08:47:21;;;;;;;14.00;8.50;;;21.10;94.50;;;;;;6159369;23;20203;-87
2021/07/28 08:49:52;;;;;;;9.82;7.45;;;20.90;94.50;;;;;;6160168;23;20179;-89
2021/07/28 08:52:20;;;;;;;11.00;8.50;;;20.80;94.20;;;;;;6159468;23;20203;-89
2021/07/28 08:54:47;;;;;;;12.70;9.40;;;20.80;94.70;;;;;;6160405;23;20272;-85
2021/07/28 08:57:15;;;;;;;12.85;8.15;;;20.70;94.90;;;;;;6159674;23;20239;-88
2021/07/28 08:59:42;;;;;;;10.43;8.00;;;20.50;95.00;;;;;;6133295;23;20491;-88
2021/07/28 09:02:08;;;;;;;11.98;8.88;;;20.50;95.40;;;;;;6158711;23;20278;-89
2021/07/28 09:04:35;;;;;;;10.63;9.30;;;20.40;96.00;;;;;;6159177;23;20205;-88
2021/07/28 09:07:14;;;;;;;12.77;9.85;;;20.30;96.20;;;;;;6158430;23;20697;-91
2021/07/28 09:09:49;;;;;;;13.80;10.98;;;20.10;97.10;;;;;;6158940;23;20234;-88
2021/07/28 09:12:17;;;;;;;13.63;10.85;;;20.00;98.10;;;;;;6157601;23;20286;-89
2021/07/28 09:14:53;;;;;;;12.25;10.95;;;19.90;98.90;;;;;;6156601;23;20231;-89
2021/07/28 09:17:23;;;;;;;13.20;11.80;;;19.80;99.60;;;;;;6155281;23;20206;-89
2021/07/28 09:19:51;;;;;;;13.98;10.70;;;19.70;99.90;;;;;;6155727;23;20164;-89
2021/07/28 09:22:20;;;;;;;12.60;11.15;;;19.60;99.90;;;;;;6155193;23;20313;-89
2021/07/28 09:25:08;;;;;;;11.93;10.63;;;19.50;99.90;;;;;;6155052;23;20590;-89
2021/07/28 09:27:44;;;;;;;13.75;11.45;;;19.50;99.90;;;;;;6154619;23;20493;-88
2021/07/28 09:30:11;;;;;;;13.80;10.52;;;19.40;99.90;;;;;;6154334;23;20167;-88
2021/07/28 09:32:57;;;;;;;12.05;10.25;;;19.30;99.90;;;;;;6154096;23;20203;-89
2021/07/28 09:36:11;;;;;;;15.32;10.65;;;19.20;99.90;;;;;;6154275;23;20642;-89
2021/07/28 09:38:45;;;;;;;11.88;9.40;;;19.10;99.90;;;;;;6154806;23;20199;-88
2021/07/28 09:41:25;;;;;;;12.55;9.90;;;18.90;99.90;;;;;;6155120;23;20707;-88
2021/07/28 09:43:55;;;;;;;13.07;9.82;;;18.70;99.90;;;;;;6154115;23;20167;-90
2021/07/28 09:46:33;;;;;;;10.15;8.23;;;18.60;99.90;;;;;;6154855;23;20199;-88
2021/07/28 09:49:01;;;;;;;9.13;8.23;;;18.40;99.90;;;;;;6155129;23;20226;-87
2021/07/28 09:51:34;;;;;;;10.48;7.47;;;18.30;99.90;;;;;;6156556;23;20230;-86
2021/07/28 09:54:05;;;;;;;12.23;8.65;;;18.30;99.90;;;;;;6156096;23;20280;-87
2021/07/28 09:56:40;;;;;;;12.40;8.93;;;18.30;99.90;;;;;;6155862;23;20214;-87
2021/07/28 09:59:08;;;;;;;15.60;9.52;;;18.40;99.90;;;;;;6155676;23;20166;-86
2021/07/28 10:01:36;;;;;;;8.38;7.43;;;18.30;99.90;;;;;;6155458;23;20206;-89
2021/07/28 10:04:06;;;;;;;9.45;7.00;;;18.20;99.90;;;;;;6156632;23;20259;-86
2021/07/28 10:06:40;;;;;;;7.22;6.53;;;18.30;99.90;;;;;;6155826;23;20203;-87
2021/07/28 10:09:11;;;;;;;8.52;7.45;;;18.30;99.90;;;;;;6156076;23;20163;-87
2021/07/28 10:11:40;;;;;;;8.68;7.80;;;18.20;99.90;;;;;;6156134;23;20238;-86
2021/07/28 10:14:09;;;;;;;10.15;9.20;;;18.30;99.90;;;;;;6156356;23;20278;-86
2021/07/28 10:16:36;;;;;;;10.70;9.40;;;18.30;99.90;;;;;;6154927;23;20271;-86
2021/07/28 10:19:05;;;;;;;10.13;9.07;;;18.30;99.90;;;;;;6156672;23;20202;-86
2021/07/28 10:21:33;;;;;;;10.20;9.20;;;18.40;99.90;;;;;;6155386;23;20274;-87
2021/07/28 10:24:01;;;;;;;9.13;8.13;;;18.40;99.90;;;;;;6154853;23;20188;-87
2021/07/28 10:26:30;;;;;;;8.38;7.57;;;18.40;99.90;;;;;;6155254;23;20516;-88
2021/07/28 10:28:57;;;;;;;8.98;7.38;;;18.50;99.90;;;;;;6154756;23;20627;-88
2021/07/28 10:31:25;;;;;;;9.10;7.47;;;18.50;99.90;;;;;;6154269;23;20195;-88
2021/07/28 10:33:54;;;;;;;11.18;7.40;;;18.60;99.90;;;;;;6155084;23;20203;-87
2021/07/28 10:36:44;;;;;;;8.90;7.20;;;18.60;99.90;;;;;;6153526;23;20199;-87
2021/07/28 10:39:11;;;;;;;8.07;6.15;;;18.70;99.90;;;;;;6152266;23;20198;-87
2021/07/28 10:41:49;;;;;;;7.45;6.50;;;18.80;99.90;;;;;;6153700;23;20199;-87
2021/07/28 10:44:19;;;;;;;7.07;5.75;;;18.90;99.90;;;;;;6153864;23;20183;-88
2021/07/28 10:47:11;;;;;;;6.45;5.70;;;19.00;99.00;;;;;;6153306;23;20286;-87
2021/07/28 10:49:47;;;;;;;8.10;5.80;;;19.10;98.10;;;;;;6153110;23;20178;-89
2021/07/28 10:52:39;;;;;;;6.30;5.70;;;19.20;98.10;;;;;;6152349;23;20261;-87
2021/07/28 10:55:18;;;;;;;7.30;5.10;;;19.30;98.30;;;;;;6154172;23;20278;-88
2021/07/28 10:58:23;;;;;;;6.40;4.88;;;19.20;98.20;;;;;;6154364;23;20214;-87
2021/07/28 11:00:53;;;;;;;5.45;4.88;;;19.10;97.90;;;;;;6153530;23;20604;-87
2021/07/28 11:03:20;;;;;;;6.35;4.35;;;19.10;98.10;;;;;;6153899;23;20163;-87
2021/07/28 11:05:50;;;;;;;4.97;4.50;;;19.10;97.90;;;;;;6153508;23;20258;-87
2021/07/28 11:08:21;;;;;;;6.15;4.75;;;19.10;97.90;;;;;;6153558;23;20483;-87
2021/07/28 11:10:53;;;;;;;5.63;5.05;;;19.20;97.90;;;;;;6152839;23;20667;-87
2021/07/28 11:13:23;;;;;;;5.15;4.65;;;19.30;98.20;;;;;;6153638;23;20179;-87
2021/07/28 11:15:57;;;;;;;5.57;5.07;;;19.40;98.20;;;;;;6153170;23;20273;-88
2021/07/28 11:18:35;;;;;;;6.22;5.47;;;19.60;98.00;;;;;;6153540;23;20163;-88
2021/07/28 11:21:10;;;;;;;6.97;6.25;;;19.70;98.00;;;;;;6152892;23;20194;-88
2021/07/28 11:23:48;;;;;;;8.00;5.80;;;19.70;98.00;;;;;;6154076;23;20525;-87
2021/07/28 11:26:21;;;;;;;6.28;5.68;;;19.90;98.10;;;;;;6154013;23;20207;-87
2021/07/28 11:28:49;;;;;;;7.88;6.05;;;20.30;97.80;;;;;;6153772;23;20175;-88
2021/07/28 11:31:24;;;;;;;6.15;5.55;;;20.70;97.00;;;;;;6155641;23;20219;-85
2021/07/28 11:33:51;;;;;;;7.18;5.50;;;21.00;95.90;;;;;;6155418;23;20170;-87
2021/07/28 11:36:19;;;;;;;6.40;5.63;;;21.40;95.10;;;;;;6154489;23;20226;-84
2021/07/28 11:38:47;;;;;;;6.93;5.60;;;21.90;94.50;;;;;;6163030;23;20603;-84
2021/07/28 11:41:23;;;;;;;6.00;5.40;;;22.60;93.20;;;;;;6159797;23;20206;-84
2021/07/28 11:43:50;;;;;;;5.68;4.70;;;22.60;90.40;;;;;;6158456;23;20175;-86
2021/07/28 11:46:21;;;;;;;5.10;4.60;;;22.50;90.20;;;;;;6157263;23;20231;-86
2021/07/28 11:48:55;;;;;;;5.57;5.13;;;22.20;89.60;;;;;;6157470;23;20699;-85
2021/07/28 11:51:27;;;;;;;5.90;5.15;;;21.70;90.90;;;;;;6157061;23;20198;-84
2021/07/28 11:53:55;;;;;;;5.30;4.80;;;21.50;92.40;;;;;;6157586;23;20160;-87
2021/07/28 11:56:22;;;;;;;7.15;5.88;;;21.40;93.00;;;;;;6155085;23;20211;-88
2021/07/28 11:58:52;;;;;;;6.10;5.50;;;21.40;93.00;;;;;;6157547;23;20202;-85
2021/07/28 12:01:23;;;;;;;7.40;5.20;;;21.40;93.00;;;;;;6158042;23;20599;-86
2021/07/28 12:03:52;;;;;;;7.25;4.82;;;21.50;93.00;;;;;;6159045;23;20166;-85
2021/07/28 12:06:30;;;;;;;5.20;4.72;;;21.50;93.00;;;;;;6156643;23;20273;-85
2021/07/28 12:09:08;;;;;;;5.90;5.30;;;21.40;93.00;;;;;;6157612;23;20171;-86
2021/07/28 12:11:52;;;;;;;5.88;4.72;;;21.50;93.00;;;;;;6157610;23;20205;-86
2021/07/28 12:14:27;;;;;;;5.20;4.75;;;21.40;92.10;;;;;;6157232;23;20741;-85
2021/07/28 12:16:59;;;;;;;7.28;5.30;;;21.30;92.40;;;;;;6155454;23;20218;-88
2021/07/28 12:19:28;;;;;;;5.68;5.13;;;21.10;92.90;;;;;;6156958;23;20194;-86
2021/07/28 12:22:04;;;;;;;5.57;5.00;;;21.00;92.90;;;;;;6157773;23;20530;-87
2021/07/28 12:24:36;;;;;;;5.35;4.82;;;20.90;94.00;;;;;;6159032;23;20219;-85
2021/07/28 12:27:39;;;;;;;5.35;4.80;;;20.80;94.00;;;;;;6159615;23;20277;-86
2021/07/28 12:30:09;;;;;;;6.57;5.03;;;20.80;94.30;;;;;;6160530;23;20215;-88
2021/07/28 12:32:40;;;;;;;5.60;4.70;;;20.80;94.60;;;;;;6158881;23;20287;-86
2021/07/28 12:35:27;;;;;;;5.68;5.00;;;20.80;94.80;;;;;;6157616;23;21192;-88
2021/07/28 12:38:15;;;;;;;6.60;4.97;;;21.10;94.40;;;;;;6156455;23;20210;-86
2021/07/28 12:40:45;;;;;;;5.60;5.10;;;21.50;94.30;;;;;;6158830;23;20198;-85
2021/07/28 12:43:12;;;;;;;5.20;4.80;;;21.70;94.00;;;;;;6160015;23;20282;-84
2021/07/28 12:45:42;;;;;;;5.13;4.63;;;22.10;93.10;;;;;;6157703;23;20211;-85
2021/07/28 12:48:11;;;;;;;6.13;5.00;;;22.50;91.30;;;;;;6158030;23;20234;-87
2021/07/28 12:50:41;;;;;;;5.53;4.90;;;22.80;90.60;;;;;;6158603;23;20235;-84
2021/07/28 12:53:08;;;;;;;5.38;4.88;;;22.70;87.80;;;;;;6158619;23;20494;-86
2021/07/28 12:55:36;;;;;;;5.63;4.40;;;22.90;88.80;;;;;;6158383;23;20278;-84
2021/07/28 12:58:04;;;;;;;5.50;4.90;;;22.70;83.90;;;;;;6156171;23;20348;-85
2021/07/28 13:00:31;;;;;;;6.50;4.90;;;22.10;86.10;;;;;;6156957;23;20175;-84